createdAt,value
2019-02-16T00:01:18.401Z,23.75
2019-02-16T00:03:47.406Z,25.50
2019-02-16T00:06:16.557Z,26.00
2019-02-16T00:08:45.546Z,20.00
2019-02-16T00:11:14.711Z,26.50
2019-02-16T00:13:45.482Z,22.50
2019-02-16T00:16:14.602Z,25.50
2019-02-16T00:18:43.727Z,22.50
2019-02-16T00:21:13.866Z,27.00
2019-02-16T00:23:42.947Z,27.50
2019-02-16T00:26:12.076Z,26.50
2019-02-16T00:28:41.050Z,28.50
2019-02-16T00:31:10.228Z,23.50
2019-02-16T00:33:39.287Z,25.00
2019-02-16T00:36:08.384Z,26.00
2019-02-16T00:38:37.383Z,24.00
2019-02-16T00:41:06.406Z,22.00
2019-02-16T00:43:35.369Z,26.00
2019-02-16T00:46:04.421Z,25.00
2019-02-16T00:48:34.831Z,21.50
2019-02-16T00:51:12.968Z,26.00
2019-02-16T00:53:34.621Z,24.50
2019-02-16T00:56:07.172Z,25.50
2019-02-16T00:58:38.948Z,26.50
2019-02-16T01:01:07.977Z,31.00
2019-02-16T01:03:36.983Z,29.00
2019-02-16T01:06:06.080Z,22.00
2019-02-16T01:08:37.622Z,28.00
2019-02-16T01:11:06.825Z,27.00
2019-02-16T01:13:38.305Z,26.00
2019-02-16T01:16:07.406Z,24.00
2019-02-16T01:18:36.432Z,25.50
2019-02-16T01:21:05.543Z,21.50
2019-02-16T01:23:36.593Z,23.50
2019-02-16T01:26:05.666Z,26.50
2019-02-16T01:28:34.726Z,24.50
2019-02-16T01:31:03.808Z,25.50
2019-02-16T01:33:32.874Z,26.00
2019-02-16T01:36:01.982Z,29.00
2019-02-16T01:38:31.155Z,27.50
2019-02-16T01:41:00.269Z,28.00
2019-02-16T01:43:30.470Z,24.50
2019-02-16T01:45:59.509Z,26.00
2019-02-16T01:48:28.485Z,28.00
2019-02-16T01:50:57.530Z,27.50
2019-02-16T01:53:26.616Z,24.00
2019-02-16T01:55:55.719Z,26.50
2019-02-16T01:58:24.738Z,25.50
2019-02-16T02:00:53.895Z,26.00
2019-02-16T02:03:24.155Z,28.00
2019-02-16T02:05:53.204Z,26.00
2019-02-16T02:08:22.337Z,25.50
2019-02-16T02:10:51.418Z,27.50
2019-02-16T02:13:20.540Z,24.50
2019-02-16T02:15:49.613Z,23.00
2019-02-16T02:18:18.704Z,25.50
2019-02-16T02:20:47.763Z,24.50
2019-02-16T02:23:16.859Z,26.50
2019-02-16T02:25:45.907Z,25.50
2019-02-16T02:28:14.956Z,26.50
2019-02-16T02:30:44.141Z,26.00
2019-02-16T02:33:13.210Z,22.50
2019-02-16T02:35:42.277Z,25.50
2019-02-16T02:38:11.326Z,26.00
2019-02-16T02:40:40.397Z,25.50
2019-02-16T02:43:09.454Z,24.50
2019-02-16T02:45:38.513Z,25.50
2019-02-16T02:48:07.563Z,25.00
2019-02-16T02:50:36.665Z,27.50
2019-02-16T02:53:05.707Z,28.00
2019-02-16T02:55:34.852Z,27.00
2019-02-16T02:58:03.926Z,29.50
2019-02-16T03:00:33.167Z,25.50
2019-02-16T03:03:02.207Z,28.00
2019-02-16T03:05:31.264Z,25.00
2019-02-16T03:08:00.435Z,31.00
2019-02-16T03:10:29.563Z,29.00
2019-02-16T03:12:58.750Z,28.00
2019-02-16T03:15:27.877Z,26.00
2019-02-16T03:17:56.997Z,28.50
2019-02-16T03:20:26.063Z,29.00
2019-02-16T03:23:16.956Z,26.50
2019-02-16T03:26:27.144Z,28.50
2019-02-16T03:29:18.064Z,25.00
2019-02-16T03:32:24.120Z,25.00
2019-02-16T03:35:14.878Z,25.00
2019-02-16T03:37:52.302Z,26.50
2019-02-16T03:40:21.511Z,33.00
2019-02-16T03:42:50.555Z,28.50
2019-02-16T03:45:19.662Z,27.50
2019-02-16T03:47:51.489Z,29.50
2019-02-16T03:50:20.541Z,29.50
2019-02-16T03:52:49.641Z,31.00
2019-02-16T03:55:18.692Z,26.00
2019-02-16T03:57:47.745Z,30.00
2019-02-16T04:00:17.822Z,28.50
2019-02-16T04:02:46.842Z,28.50
2019-02-16T04:05:15.971Z,26.50
2019-02-16T04:07:45.114Z,31.50
2019-02-16T04:10:14.279Z,26.00
2019-02-16T04:12:43.414Z,25.50
2019-02-16T04:15:12.610Z,25.00
2019-02-16T04:17:41.631Z,28.00
2019-02-16T04:20:10.855Z,28.00
2019-02-16T04:22:39.868Z,26.00
2019-02-16T04:25:09.002Z,25.00
2019-02-16T04:27:38.129Z,24.00
2019-02-16T04:30:07.855Z,29.00
2019-02-16T04:32:39.205Z,28.00
2019-02-16T04:35:08.388Z,26.00
2019-02-16T04:37:37.451Z,24.00
2019-02-16T04:40:09.214Z,27.00
2019-02-16T04:42:40.775Z,23.50
2019-02-16T04:45:09.913Z,23.00
2019-02-16T04:47:38.914Z,26.00
2019-02-16T04:50:14.121Z,28.00
2019-02-16T04:52:43.138Z,26.50
2019-02-16T04:55:13.959Z,29.50
2019-02-16T04:57:42.987Z,25.50
2019-02-16T05:00:14.864Z,24.50
2019-02-16T05:02:43.855Z,27.00
2019-02-16T05:05:14.644Z,28.00
2019-02-16T05:07:43.634Z,23.00
2019-02-16T05:10:12.861Z,23.50
2019-02-16T05:12:43.495Z,26.00
2019-02-16T05:17:46.893Z,26.00
2019-02-16T05:22:51.029Z,26.00
2019-02-16T05:25:24.201Z,28.00
2019-02-16T05:27:53.169Z,25.50
2019-02-16T05:32:58.345Z,27.50
2019-02-16T05:35:27.382Z,28.00
2019-02-16T05:37:56.382Z,28.00
2019-02-16T05:40:26.954Z,27.50
2019-02-16T05:42:55.969Z,26.00
2019-02-16T05:45:25.080Z,26.00
2019-02-16T05:47:54.283Z,26.50
2019-02-16T05:50:23.381Z,24.00
2019-02-16T05:52:54.599Z,27.00
2019-02-16T05:55:23.282Z,22.50
2019-02-16T05:57:52.298Z,26.50
2019-02-16T06:00:24.723Z,24.00
2019-02-16T06:02:53.762Z,26.50
2019-02-16T06:05:22.872Z,20.00
2019-02-16T06:07:54.967Z,23.50
2019-02-16T06:10:25.432Z,24.00
2019-02-16T06:12:55.498Z,24.00
2019-02-16T06:15:24.496Z,24.00
2019-02-16T06:17:53.528Z,29.00
2019-02-16T06:20:22.600Z,26.00
2019-02-16T06:22:51.636Z,22.00
2019-02-16T06:25:20.648Z,25.50
2019-02-16T06:27:49.670Z,26.00
2019-02-16T06:30:18.673Z,24.00
2019-02-16T06:32:47.727Z,27.00
2019-02-16T06:35:44.697Z,23.50
2019-02-16T06:38:17.994Z,24.00
2019-02-16T06:40:47.079Z,30.00
2019-02-16T06:43:16.149Z,25.50
2019-02-16T06:45:45.142Z,22.50
2019-02-16T06:48:14.361Z,24.00
2019-02-16T06:50:43.368Z,26.50
2019-02-16T06:53:13.589Z,24.00
2019-02-16T06:55:47.572Z,24.50
2019-02-16T06:58:16.556Z,28.50
2019-02-16T07:00:45.661Z,24.00
2019-02-16T07:03:14.682Z,28.00
2019-02-16T07:05:43.763Z,27.50
2019-02-16T07:08:12.791Z,29.50
2019-02-16T07:10:41.946Z,30.00
2019-02-16T07:13:19.069Z,28.00
2019-02-16T07:16:08.325Z,31.50
2019-02-16T07:18:45.688Z,27.50
2019-02-16T07:21:14.850Z,28.00
2019-02-16T07:23:45.691Z,28.00
2019-02-16T07:26:14.987Z,27.00
2019-02-16T07:28:44.132Z,28.50
2019-02-16T07:31:13.124Z,29.00
2019-02-16T07:33:42.176Z,28.50
2019-02-16T07:36:11.287Z,28.00
2019-02-16T07:38:40.573Z,30.50
2019-02-16T07:41:09.668Z,33.50
2019-02-16T07:44:01.037Z,29.50
2019-02-16T07:46:55.221Z,30.50
2019-02-16T07:49:29.280Z,29.50
2019-02-16T07:52:04.985Z,33.50
2019-02-16T07:55:00.279Z,29.50
2019-02-16T07:57:54.380Z,34.00
2019-02-16T08:00:57.215Z,32.50
2019-02-16T08:03:45.205Z,34.00
2019-02-16T08:06:32.105Z,31.50
2019-02-16T08:09:14.226Z,28.00
2019-02-16T08:12:00.476Z,27.00
2019-02-16T08:14:35.894Z,35.50
2019-02-16T08:17:17.536Z,33.00
2019-02-16T08:19:56.993Z,30.00
2019-02-16T08:22:39.141Z,32.50
2019-02-16T08:25:27.179Z,30.00
2019-02-16T08:28:01.539Z,32.00
2019-02-16T08:30:52.626Z,31.50
2019-02-16T08:33:30.240Z,31.00
2019-02-16T08:36:07.147Z,29.00
2019-02-16T08:38:54.056Z,32.00
2019-02-16T08:41:51.382Z,31.00
2019-02-16T08:44:34.616Z,32.50
2019-02-16T08:47:16.740Z,33.00
2019-02-16T08:53:10.981Z,32.50
2019-02-16T08:55:55.421Z,30.00
2019-02-16T08:58:55.540Z,32.00
2019-02-16T09:01:42.329Z,31.50
2019-02-16T09:04:26.440Z,30.00
2019-02-16T09:07:20.724Z,31.50
2019-02-16T09:10:00.856Z,32.00
2019-02-16T09:12:48.887Z,32.00
2019-02-16T09:15:50.335Z,30.00
2019-02-16T09:18:44.200Z,30.50
2019-02-16T09:21:35.226Z,34.50
2019-02-16T09:24:23.367Z,31.50
2019-02-16T09:27:26.698Z,32.50
2019-02-16T09:30:23.663Z,37.00
2019-02-16T09:33:10.481Z,38.50
2019-02-16T09:35:57.229Z,32.75
2019-02-16T09:38:32.675Z,33.00
2019-02-16T09:41:26.773Z,36.75
2019-02-16T09:44:06.605Z,36.00
2019-02-16T09:46:46.866Z,37.75
2019-02-16T09:49:40.657Z,37.00
2019-02-16T09:52:46.795Z,35.75
2019-02-16T09:55:39.487Z,35.00
2019-02-16T09:58:22.879Z,30.50
2019-02-16T10:01:07.629Z,36.25
2019-02-16T10:03:53.453Z,35.00
2019-02-16T10:06:49.844Z,35.75
2019-02-16T10:09:24.830Z,33.50
2019-02-16T10:12:22.044Z,36.00
2019-02-16T10:15:25.270Z,37.75
2019-02-16T10:18:22.198Z,34.00
2019-02-16T10:21:10.207Z,37.75
2019-02-16T10:24:07.233Z,37.00
2019-02-16T10:26:42.695Z,36.50
2019-02-16T10:29:33.919Z,37.75
2019-02-16T10:32:33.974Z,34.50
2019-02-16T10:35:23.599Z,36.75
2019-02-16T10:38:14.678Z,38.25
2019-02-16T10:41:14.515Z,34.25
2019-02-16T10:44:11.439Z,36.75
2019-02-16T10:46:50.396Z,35.75
2019-02-16T10:49:37.481Z,37.25
2019-02-16T10:52:17.044Z,35.25
2019-02-16T10:55:05.034Z,36.25
2019-02-16T10:57:44.943Z,36.25
2019-02-16T11:00:31.798Z,38.00
2019-02-16T11:03:22.806Z,37.25
2019-02-16T11:06:08.024Z,37.75
2019-02-16T11:08:55.077Z,36.75
2019-02-16T11:11:32.215Z,38.25
2019-02-16T11:14:33.200Z,37.75
2019-02-16T11:17:21.224Z,38.50
2019-02-16T11:20:11.490Z,39.75
2019-02-16T11:23:08.521Z,38.00
2019-02-16T11:25:55.168Z,39.25
2019-02-16T11:28:52.424Z,37.50
2019-02-16T11:31:30.986Z,39.50
2019-02-16T11:34:17.601Z,38.75
2019-02-16T11:36:57.868Z,38.25
2019-02-16T11:39:44.779Z,38.75
2019-02-16T11:42:23.610Z,40.25
2019-02-16T11:45:17.334Z,38.25
2019-02-16T11:48:11.325Z,42.50
2019-02-16T11:51:05.463Z,38.25
2019-02-16T11:53:40.005Z,41.50
2019-02-16T11:56:26.625Z,39.25
2019-02-16T11:59:13.355Z,41.00
2019-02-16T12:02:00.023Z,39.25
2019-02-16T12:04:45.054Z,39.25
2019-02-16T12:07:25.218Z,40.75
2019-02-16T12:10:04.028Z,41.50
2019-02-16T12:12:41.506Z,40.50
2019-02-16T12:15:33.286Z,42.25
2019-02-16T12:18:27.227Z,43.50
2019-02-16T12:21:29.425Z,44.25
2019-02-16T12:24:23.650Z,44.00
2019-02-16T12:27:01.246Z,43.00
2019-02-16T12:29:44.525Z,41.75
2019-02-16T12:32:32.478Z,41.50
2019-02-16T12:35:34.359Z,39.75
2019-02-16T12:38:21.114Z,41.00
2019-02-16T12:41:17.915Z,40.50
2019-02-16T12:44:11.872Z,40.00
2019-02-16T12:47:12.036Z,40.25
2019-02-16T12:50:08.851Z,40.75
2019-02-16T12:52:56.822Z,37.25
2019-02-16T12:55:38.208Z,40.50
2019-02-16T12:58:28.430Z,39.00
2019-02-16T13:01:19.839Z,38.75
2019-02-16T13:04:15.579Z,40.75
2019-02-16T13:07:03.280Z,39.00
2019-02-16T13:09:42.219Z,40.00
2019-02-16T13:12:45.340Z,38.75
2019-02-16T13:15:40.532Z,39.00
2019-02-16T13:18:31.724Z,39.75
2019-02-16T13:21:26.250Z,39.75
2019-02-16T13:24:12.963Z,39.00
2019-02-16T13:26:57.350Z,41.50
2019-02-16T13:29:46.563Z,41.00
2019-02-16T13:32:43.619Z,39.75
2019-02-16T13:35:32.771Z,42.00
2019-02-16T13:38:21.606Z,41.00
2019-02-16T13:41:19.006Z,41.00
2019-02-16T13:44:04.141Z,42.50
2019-02-16T13:46:54.453Z,42.00
2019-02-16T13:49:28.711Z,42.75
2019-02-16T13:52:08.619Z,42.75
2019-02-16T13:54:46.063Z,42.75
2019-02-16T13:57:30.603Z,42.75
2019-02-16T14:00:19.771Z,41.75
2019-02-16T14:03:08.939Z,42.75
2019-02-16T14:05:55.747Z,42.75
2019-02-16T14:08:42.589Z,43.00
2019-02-16T14:11:29.602Z,41.75
2019-02-16T14:14:26.270Z,42.50
2019-02-16T14:17:14.462Z,40.25
2019-02-16T14:19:48.567Z,42.25
2019-02-16T14:22:17.600Z,39.75
2019-02-16T14:24:52.652Z,40.25
2019-02-16T14:27:21.760Z,42.00
2019-02-16T14:29:50.779Z,41.50
2019-02-16T14:32:20.038Z,40.75
2019-02-16T14:34:49.017Z,42.75
2019-02-16T14:37:34.882Z,41.25
2019-02-16T14:40:04.230Z,42.50
2019-02-16T14:42:33.269Z,41.75
2019-02-16T14:45:02.594Z,39.25
2019-02-16T14:52:43.668Z,42.75
2019-02-16T14:55:13.561Z,42.75
2019-02-16T14:57:42.784Z,42.25
2019-02-16T15:00:12.192Z,40.50
2019-02-16T15:02:41.267Z,40.50
2019-02-16T15:05:13.985Z,42.75
2019-02-16T15:07:43.111Z,39.00
2019-02-16T15:12:47.180Z,43.25
2019-02-16T15:15:19.638Z,41.00
2019-02-16T15:17:48.665Z,42.75
2019-02-16T15:22:56.022Z,42.75
2019-02-16T15:25:25.936Z,42.75
2019-02-16T15:27:57.390Z,40.75
2019-02-16T15:33:02.310Z,41.75
2019-02-16T15:35:31.629Z,43.00
2019-02-16T15:38:00.933Z,41.75
2019-02-16T15:40:30.092Z,42.50
2019-02-16T15:43:02.013Z,41.75
2019-02-16T15:45:31.227Z,42.75
2019-02-16T15:48:00.287Z,42.75
2019-02-16T15:50:29.453Z,42.00
2019-02-16T15:52:58.614Z,44.00
2019-02-16T15:55:29.750Z,42.00
2019-02-16T15:57:58.534Z,45.50
2019-02-16T16:00:28.509Z,43.25
2019-02-16T16:02:59.547Z,47.50
2019-02-16T16:05:28.478Z,47.25
2019-02-16T16:08:18.706Z,47.25
2019-02-16T16:11:09.640Z,44.75
2019-02-16T16:13:56.543Z,46.50
2019-02-16T16:16:35.702Z,43.75
2019-02-16T16:19:33.245Z,42.75
2019-02-16T16:22:17.402Z,42.75
2019-02-16T16:25:05.731Z,42.25
2019-02-16T16:27:41.311Z,42.50
2019-02-16T16:30:32.856Z,45.25
2019-02-16T16:33:10.985Z,58.00
2019-02-16T16:35:58.126Z,48.75
2019-02-16T16:38:35.236Z,45.75
2019-02-16T16:41:24.809Z,46.00
2019-02-16T16:44:14.878Z,45.75
2019-02-16T16:47:05.000Z,46.00
2019-02-16T16:49:42.737Z,46.75
2019-02-16T16:52:29.568Z,45.25
2019-02-16T16:55:20.521Z,46.25
2019-02-16T16:58:14.565Z,47.25
2019-02-16T17:00:53.135Z,48.75
2019-02-16T17:06:31.505Z,46.00
2019-02-16T17:10:08.113Z,47.75
2019-02-16T17:17:24.868Z,50.25
2019-02-16T17:32:58.692Z,50.50
2019-02-16T17:47:38.417Z,52.25
2019-02-16T18:14:36.039Z,53.75
2019-02-16T18:17:42.267Z,55.25
2019-02-16T18:20:17.164Z,54.75
2019-02-16T18:23:15.689Z,54.75
2019-02-16T18:26:15.981Z,52.75
2019-02-16T18:29:03.772Z,54.25
2019-02-16T18:31:57.905Z,52.75
2019-02-16T18:34:58.485Z,54.75
2019-02-16T18:37:46.496Z,55.25
2019-02-16T18:40:36.379Z,56.75
2019-02-16T18:43:42.322Z,57.25
2019-02-16T18:46:19.029Z,56.25
2019-02-16T18:49:27.677Z,56.75
2019-02-16T18:52:29.035Z,59.25
2019-02-16T18:55:10.949Z,53.75
2019-02-16T18:58:19.301Z,56.75
2019-02-16T19:01:06.619Z,54.75
2019-02-16T19:04:01.691Z,55.75
2019-02-16T19:06:48.250Z,53.75
2019-02-16T19:09:24.331Z,52.75
2019-02-16T19:11:59.171Z,53.75
2019-02-16T22:00:29.735Z,59.00
2019-02-16T22:14:41.099Z,60.00
2019-02-16T22:20:57.127Z,61.00
2019-02-16T22:23:26.222Z,59.50
2019-02-16T22:25:55.626Z,59.50
2019-02-16T22:28:56.604Z,58.50
2019-02-16T22:31:31.915Z,61.50
2019-02-16T22:34:08.342Z,62.00
2019-02-16T22:36:37.450Z,58.00
2019-02-16T22:39:07.240Z,60.00
2019-02-16T22:41:36.358Z,57.50
2019-02-16T22:44:05.635Z,56.00
2019-02-16T22:46:34.751Z,58.50
2019-02-16T22:49:03.762Z,56.50
2019-02-16T22:51:32.923Z,55.00
2019-02-16T22:54:03.240Z,58.00
2019-02-16T22:56:32.252Z,57.50
2019-02-16T22:59:01.554Z,57.50
2019-02-16T23:01:31.064Z,58.00
2019-02-16T23:04:00.100Z,60.00
2019-02-16T23:06:29.121Z,57.00
2019-02-16T23:08:58.185Z,61.00
2019-02-16T23:11:27.270Z,57.50
2019-02-16T23:13:56.363Z,58.50
2019-02-16T23:16:25.498Z,58.00
2019-02-16T23:18:54.561Z,56.00
2019-02-16T23:21:23.689Z,56.00
2019-02-16T23:23:52.975Z,56.00
2019-02-16T23:26:24.397Z,52.50
2019-02-16T23:28:53.387Z,55.50
2019-02-16T23:31:22.714Z,56.00
2019-02-16T23:33:51.735Z,56.00
2019-02-16T23:36:20.746Z,54.00
2019-02-16T23:38:49.805Z,54.00
2019-02-16T23:41:20.260Z,56.00
2019-02-16T23:43:49.277Z,56.00
2019-02-16T23:46:18.458Z,55.50
2019-02-16T23:48:47.543Z,54.50
2019-02-16T23:51:18.745Z,54.50
2019-02-16T23:53:47.866Z,56.50
2019-02-16T23:56:16.866Z,56.00
2019-02-16T23:58:49.294Z,53.50
